Time;durP1;ratioP1;P1;durP2;ratioP2;P2;SDS_P1;SDS_P2;PMS_P1;PMS_P2;Temp;Humidity;BMP_temperature;BMP_pressure;BME280_temperature;BME280_humidity;BME280_pressure;Samples;Min_cycle;Max_cycle;Signal;HPM_P1;HPM_P2
2022/06/22 00:00:01;;;;;;;2.47;1.50;;;24.00;61.30;;;;;;4969177;28;20449;-66
2022/06/22 00:02:31;;;;;;;2.30;1.70;;;24.00;61.40;;;;;;4985583;28;20459;-66
2022/06/22 00:05:05;;;;;;;2.43;1.53;;;24.00;61.40;;;;;;4996088;28;20421;-65
2022/06/22 00:07:44;;;;;;;3.10;1.80;;;24.00;61.50;;;;;;4970216;28;20485;-65
2022/06/22 00:10:22;;;;;;;3.33;2.20;;;23.90;61.40;;;;;;4976235;28;21020;-69
2022/06/22 00:12:57;;;;;;;2.00;1.80;;;23.90;61.40;;;;;;4969943;28;20445;-69
2022/06/22 00:15:36;;;;;;;2.60;1.80;;;23.90;61.50;;;;;;4980229;28;20449;-69
2022/06/22 00:18:23;;;;;;;2.83;2.10;;;23.90;61.60;;;;;;4958323;28;20422;-69
2022/06/22 00:20:55;;;;;;;4.63;1.87;;;23.90;61.60;;;;;;4974539;28;20957;-69
2022/06/22 00:23:46;;;;;;;2.93;1.77;;;23.80;61.50;;;;;;4980481;28;20560;-67
2022/06/22 00:26:23;;;;;;;3.83;1.97;;;23.80;61.60;;;;;;4975545;28;20441;-67
2022/06/22 00:29:00;;;;;;;4.17;1.80;;;23.80;61.70;;;;;;4994228;28;20428;-67
2022/06/22 00:31:44;;;;;;;2.77;1.90;;;23.80;61.70;;;;;;4958603;28;20450;-67
2022/06/22 00:34:10;;;;;;;3.60;1.90;;;23.80;61.70;;;;;;4958381;28;20445;-67
2022/06/22 00:36:38;;;;;;;2.47;1.60;;;23.80;61.80;;;;;;4957879;28;20507;-67
2022/06/22 00:39:32;;;;;;;3.77;2.17;;;23.80;61.90;;;;;;4944179;28;20978;-69
2022/06/22 00:42:21;;;;;;;2.90;2.00;;;23.70;61.80;;;;;;4994618;28;20494;-69
2022/06/22 00:45:02;;;;;;;2.60;1.60;;;23.70;61.90;;;;;;4957275;28;20446;-68
2022/06/22 00:47:27;;;;;;;2.73;1.70;;;23.70;61.90;;;;;;4986786;28;20487;-68
2022/06/22 00:50:01;;;;;;;3.03;2.00;;;23.70;61.90;;;;;;4969236;28;20463;-69
2022/06/22 00:52:55;;;;;;;2.30;1.53;;;23.70;62.00;;;;;;4958378;28;20448;-69
2022/06/22 00:55:37;;;;;;;3.00;1.60;;;23.70;62.10;;;;;;4991515;28;20455;-68
2022/06/22 00:58:16;;;;;;;3.80;1.90;;;23.60;62.00;;;;;;4977043;28;20925;-68
2022/06/22 01:00:57;;;;;;;2.03;1.43;;;23.60;62.10;;;;;;4975816;28;20421;-68
2022/06/22 01:03:40;;;;;;;2.17;1.70;;;23.60;62.20;;;;;;4975303;28;20449;-68
2022/06/22 01:06:49;;;;;;;2.00;1.80;;;23.60;62.20;;;;;;4927164;28;20493;-68
2022/06/22 01:09:27;;;;;;;2.63;2.00;;;23.50;62.10;;;;;;4981858;28;20907;-69
2022/06/22 01:12:17;;;;;;;3.93;2.00;;;23.50;62.10;;;;;;4960643;28;20441;-68
2022/06/22 01:15:01;;;;;;;2.47;1.90;;;23.50;62.10;;;;;;4992612;28;20452;-68
2022/06/22 01:17:29;;;;;;;2.03;1.83;;;23.50;62.20;;;;;;4992743;28;20410;-68
2022/06/22 01:20:10;;;;;;;3.20;1.73;;;23.50;62.20;;;;;;4975814;28;20426;-68
2022/06/22 01:22:39;;;;;;;2.00;1.83;;;23.50;62.30;;;;;;4967421;28;20213;-69
2022/06/22 01:25:36;;;;;;;2.30;1.47;;;23.50;62.30;;;;;;4994378;28;20460;-68
2022/06/22 01:28:05;;;;;;;3.70;1.70;;;23.40;62.20;;;;;;4948907;28;21012;-68
2022/06/22 01:30:38;;;;;;;2.77;1.90;;;23.40;62.20;;;;;;4976602;28;20425;-69
2022/06/22 01:33:32;;;;;;;1.93;1.47;;;23.40;62.30;;;;;;4962998;28;20534;-68
2022/06/22 01:36:08;;;;;;;3.37;2.20;;;23.40;62.30;;;;;;4978843;28;20418;-69
2022/06/22 01:38:38;;;;;;;2.97;2.30;;;23.40;62.30;;;;;;4957518;28;20825;-68
2022/06/22 01:41:27;;;;;;;2.47;2.10;;;23.30;62.10;;;;;;4956608;28;20429;-69
2022/06/22 01:44:00;;;;;;;1.77;1.57;;;23.30;62.20;;;;;;4980975;28;20453;-68
2022/06/22 01:47:08;;;;;;;4.60;2.00;;;23.30;62.20;;;;;;4981837;28;20545;-68
2022/06/22 01:49:43;;;;;;;3.20;2.20;;;23.30;62.30;;;;;;4987007;28;20440;-68
2022/06/22 01:52:21;;;;;;;2.13;1.93;;;23.30;62.40;;;;;;4993731;28;20437;-69
2022/06/22 01:54:55;;;;;;;3.80;1.67;;;23.20;62.30;;;;;;4956366;28;20468;-68
2022/06/22 01:57:33;;;;;;;2.83;1.53;;;23.20;62.30;;;;;;4957099;28;20433;-69
2022/06/22 02:00:01;;;;;;;2.00;1.60;;;23.20;62.40;;;;;;4956515;28;20461;-68
2022/06/22 02:02:36;;;;;;;4.67;1.80;;;23.20;62.50;;;;;;4965358;28;20964;-68
2022/06/22 02:05:12;;;;;;;3.93;1.80;;;23.20;62.50;;;;;;4957694;28;20498;-68
2022/06/22 02:07:49;;;;;;;3.23;2.03;;;23.20;62.50;;;;;;4957287;28;20446;-68
2022/06/22 02:10:27;;;;;;;2.50;1.87;;;23.10;62.50;;;;;;4975908;28;20432;-68
2022/06/22 02:13:08;;;;;;;2.30;1.70;;;23.10;62.60;;;;;;4973215;28;20453;-68
2022/06/22 02:15:40;;;;;;;6.37;1.87;;;23.10;62.60;;;;;;4956418;28;20776;-68
2022/06/22 02:18:26;;;;;;;3.07;1.63;;;23.10;62.60;;;;;;4981497;28;20496;-68
2022/06/22 02:20:54;;;;;;;1.83;1.60;;;23.10;62.70;;;;;;4958630;28;20458;-69
2022/06/22 02:23:28;;;;;;;1.93;1.40;;;23.10;62.70;;;;;;4975911;28;20917;-68
2022/06/22 02:26:22;;;;;;;2.77;2.00;;;23.10;63.60;;;;;;4973489;28;20408;-69
2022/06/22 02:28:50;;;;;;;2.17;1.87;;;23.00;62.70;;;;;;4982734;28;20460;-68
2022/06/22 02:31:20;;;;;;;2.73;1.80;;;23.00;62.70;;;;;;4970486;28;21035;-68
2022/06/22 02:33:55;;;;;;;4.50;1.77;;;23.00;62.80;;;;;;4956071;28;20844;-68
2022/06/22 02:36:27;;;;;;;3.37;2.00;;;23.00;62.80;;;;;;4967192;28;20422;-68
2022/06/22 02:39:02;;;;;;;3.90;2.10;;;23.00;62.80;;;;;;4940802;28;21167;-68
2022/06/22 02:44:30;;;;;;;4.00;1.70;;;22.90;62.80;;;;;;4986986;28;20441;-68
2022/06/22 02:47:16;;;;;;;2.80;1.63;;;22.90;62.80;;;;;;4975696;28;21046;-68
2022/06/22 02:49:48;;;;;;;2.70;1.73;;;22.90;62.80;;;;;;4984378;28;20426;-68
2022/06/22 02:52:21;;;;;;;2.87;2.07;;;22.90;62.90;;;;;;4956101;28;20937;-69
2022/06/22 02:55:01;;;;;;;3.30;1.90;;;22.90;62.90;;;;;;4955969;28;20430;-69
2022/06/22 02:57:55;;;;;;;3.57;1.97;;;22.90;62.90;;;;;;4941421;28;20437;-69
2022/06/22 03:00:33;;;;;;;2.50;1.57;;;22.80;62.90;;;;;;4940578;28;20395;-68
2022/06/22 03:03:09;;;;;;;2.63;1.80;;;22.80;62.90;;;;;;4983560;28;20457;-68
2022/06/22 03:05:46;;;;;;;2.63;1.87;;;22.80;62.90;;;;;;4976674;28;20458;-68
2022/06/22 03:08:14;;;;;;;3.13;2.20;;;22.80;63.00;;;;;;4989146;28;20455;-69
2022/06/22 03:10:51;;;;;;;2.10;1.57;;;22.80;63.00;;;;;;4973402;28;20432;-68
2022/06/22 03:13:29;;;;;;;2.00;1.77;;;22.80;63.00;;;;;;4981663;28;20417;-68
2022/06/22 03:16:02;;;;;;;2.30;1.70;;;22.70;63.00;;;;;;4992586;28;20400;-68
2022/06/22 03:18:34;;;;;;;1.63;1.53;;;22.70;63.00;;;;;;4974527;28;20461;-68
2022/06/22 03:21:03;;;;;;;3.20;2.13;;;22.70;63.00;;;;;;4945995;28;20417;-68
2022/06/22 03:23:48;;;;;;;3.13;2.30;;;22.70;63.00;;;;;;4964319;28;20516;-68
2022/06/22 03:26:22;;;;;;;2.27;1.60;;;22.60;62.90;;;;;;4977029;28;20413;-68
2022/06/22 03:29:00;;;;;;;1.97;1.83;;;22.60;62.90;;;;;;4994241;28;20452;-68
2022/06/22 03:31:48;;;;;;;2.50;1.80;;;22.60;63.00;;;;;;4971142;28;20448;-68
2022/06/22 03:34:24;;;;;;;2.17;1.97;;;22.60;62.90;;;;;;4981750;28;20420;-69
2022/06/22 03:37:24;;;;;;;1.73;1.60;;;22.60;63.00;;;;;;4973060;28;20927;-68
2022/06/22 03:39:56;;;;;;;3.80;2.13;;;22.60;63.00;;;;;;4968738;28;20438;-68
2022/06/22 03:42:30;;;;;;;2.70;2.23;;;22.50;63.00;;;;;;4987485;28;20489;-68
2022/06/22 03:45:27;;;;;;;3.17;2.13;;;22.50;63.00;;;;;;4983730;28;20935;-68
2022/06/22 03:47:59;;;;;;;3.60;1.80;;;22.50;63.10;;;;;;4958176;28;20483;-68
2022/06/22 03:50:46;;;;;;;2.70;1.97;;;22.50;63.00;;;;;;4959069;28;20434;-68
2022/06/22 03:53:34;;;;;;;3.53;2.03;;;22.50;63.10;;;;;;4943076;28;20954;-68
2022/06/22 03:56:08;;;;;;;3.77;2.33;;;22.50;63.10;;;;;;4977421;28;20455;-68
2022/06/22 03:58:34;;;;;;;2.40;1.80;;;22.40;63.00;;;;;;4962392;28;20413;-69
2022/06/22 04:01:03;;;;;;;2.77;2.27;;;22.40;63.10;;;;;;4960273;28;20434;-68
2022/06/22 04:03:30;;;;;;;2.03;1.77;;;22.40;63.20;;;;;;4965934;28;20980;-69
2022/06/22 04:06:03;;;;;;;2.80;2.00;;;22.40;63.20;;;;;;4960353;28;20445;-69
2022/06/22 04:08:35;;;;;;;3.50;2.10;;;22.40;63.20;;;;;;4959070;28;20449;-68
2022/06/22 04:11:13;;;;;;;3.80;2.23;;;22.40;63.20;;;;;;4983554;28;20504;-68
2022/06/22 04:13:47;;;;;;;2.50;2.00;;;22.40;63.20;;;;;;4976276;28;20846;-68
2022/06/22 04:16:21;;;;;;;2.90;2.40;;;22.30;63.10;;;;;;4958873;28;20448;-68
2022/06/22 04:18:56;;;;;;;2.00;1.67;;;22.30;63.10;;;;;;4942884;28;20973;-70
2022/06/22 04:21:35;;;;;;;3.50;2.53;;;22.30;63.10;;;;;;4958630;28;20441;-67
2022/06/22 04:24:26;;;;;;;3.73;2.30;;;22.30;63.20;;;;;;4985179;28;20455;-67
2022/06/22 04:27:17;;;;;;;2.40;2.10;;;22.30;63.20;;;;;;4977753;28;20806;-68
2022/06/22 04:30:06;;;;;;;3.40;2.40;;;22.30;63.30;;;;;;4960766;28;20452;-68
2022/06/22 04:32:46;;;;;;;4.03;2.07;;;22.20;63.20;;;;;;4987470;28;20442;-69
2022/06/22 04:35:29;;;;;;;3.03;2.00;;;22.20;63.30;;;;;;4990705;28;20844;-68
2022/06/22 04:38:14;;;;;;;3.17;2.17;;;22.20;64.20;;;;;;4988206;28;20452;-69
2022/06/22 04:40:40;;;;;;;2.70;1.67;;;22.20;63.30;;;;;;4977310;28;20421;-69
2022/06/22 04:43:06;;;;;;;2.70;1.90;;;22.20;63.40;;;;;;4957928;28;20454;-68
2022/06/22 04:45:51;;;;;;;2.90;2.10;;;22.20;63.40;;;;;;4992990;28;20433;-68
2022/06/22 04:48:24;;;;;;;4.53;2.40;;;22.20;63.50;;;;;;4977338;28;20472;-69
2022/06/22 04:50:57;;;;;;;2.93;2.00;;;22.20;63.50;;;;;;4991203;28;20500;-68
2022/06/22 04:53:35;;;;;;;3.70;1.97;;;22.10;63.40;;;;;;4994490;28;21057;-69
2022/06/22 04:56:06;;;;;;;3.10;2.17;;;22.10;63.50;;;;;;4975579;28;20402;-68
2022/06/22 04:58:41;;;;;;;3.17;2.00;;;22.10;63.50;;;;;;4972879;28;20476;-69
2022/06/22 05:01:22;;;;;;;3.43;2.10;;;22.10;63.50;;;;;;4990380;28;20533;-66
2022/06/22 05:03:51;;;;;;;2.10;1.90;;;22.10;63.70;;;;;;4944762;28;20433;-67
2022/06/22 05:07:02;;;;;;;2.20;2.00;;;22.10;63.70;;;;;;4961087;28;20508;-67
2022/06/22 05:09:42;;;;;;;2.83;2.20;;;22.10;63.80;;;;;;4894922;29;20450;-67
2022/06/22 05:12:16;;;;;;;2.80;1.87;;;22.10;63.80;;;;;;4949688;28;20473;-67
2022/06/22 05:14:49;;;;;;;2.70;2.00;;;22.10;63.90;;;;;;4967442;28;20504;-68
2022/06/22 05:17:35;;;;;;;2.17;1.87;;;22.10;64.00;;;;;;4984676;28;20589;-66
2022/06/22 05:20:29;;;;;;;2.77;2.20;;;22.10;64.10;;;;;;4974981;28;20959;-68
2022/06/22 05:23:00;;;;;;;2.60;1.90;;;22.00;64.10;;;;;;4992727;28;20846;-66
2022/06/22 05:25:27;;;;;;;10.80;2.30;;;22.00;64.20;;;;;;4968954;28;20422;-66
2022/06/22 05:28:22;;;;;;;3.27;2.33;;;22.00;64.20;;;;;;4941749;28;20560;-66
2022/06/22 05:31:02;;;;;;;2.70;2.27;;;22.00;64.30;;;;;;4992173;28;20451;-66
2022/06/22 05:33:37;;;;;;;3.73;2.00;;;22.10;64.50;;;;;;4990386;28;20417;-66
2022/06/22 05:36:12;;;;;;;3.23;2.20;;;22.00;64.40;;;;;;4991931;28;20467;-66
2022/06/22 05:38:42;;;;;;;2.50;2.20;;;22.00;64.50;;;;;;4979896;28;20860;-66
2022/06/22 05:41:10;;;;;;;3.37;2.00;;;22.00;64.60;;;;;;4960841;28;20939;-66
2022/06/22 05:43:42;;;;;;;2.90;2.17;;;22.00;64.50;;;;;;4951611;28;20590;-66
2022/06/22 05:46:10;;;;;;;3.00;1.80;;;22.00;64.60;;;;;;4942256;28;20505;-66
2022/06/22 05:48:46;;;;;;;2.40;1.80;;;22.00;64.60;;;;;;4941301;28;20465;-67
2022/06/22 05:51:20;;;;;;;4.40;2.40;;;22.00;64.60;;;;;;4971545;28;20438;-66
2022/06/22 05:53:48;;;;;;;4.70;2.30;;;22.00;64.70;;;;;;4975057;28;20887;-63
2022/06/22 05:56:25;;;;;;;3.03;1.90;;;22.00;64.70;;;;;;4957860;28;20904;-63
2022/06/22 05:59:16;;;;;;;2.60;2.13;;;22.00;64.60;;;;;;4974898;28;20524;-64
2022/06/22 06:01:55;;;;;;;3.30;2.50;;;22.00;64.80;;;;;;4979368;28;20596;-64
2022/06/22 06:04:37;;;;;;;3.70;2.50;;;21.90;64.70;;;;;;4967691;28;21003;-64
2022/06/22 06:07:17;;;;;;;3.67;2.50;;;21.90;64.80;;;;;;4981690;28;20590;-63
2022/06/22 06:09:44;;;;;;;3.50;1.87;;;21.90;64.90;;;;;;4993741;28;20416;-64
2022/06/22 06:12:27;;;;;;;4.30;2.50;;;21.90;64.90;;;;;;4959987;28;20437;-63
2022/06/22 06:15:02;;;;;;;3.00;2.30;;;21.90;65.00;;;;;;4993665;28;20747;-64
2022/06/22 06:17:38;;;;;;;3.53;2.10;;;21.90;65.00;;;;;;4985824;28;20483;-64
2022/06/22 06:20:07;;;;;;;3.47;2.20;;;21.90;65.00;;;;;;4976174;28;20460;-63
2022/06/22 06:22:36;;;;;;;2.60;2.33;;;21.90;65.80;;;;;;4975237;28;20473;-63
2022/06/22 06:28:02;;;;;;;5.07;2.20;;;21.90;65.00;;;;;;4977259;28;20474;-64
2022/06/22 06:30:57;;;;;;;4.70;2.20;;;21.90;65.00;;;;;;4980840;28;20422;-63
2022/06/22 06:33:44;;;;;;;4.10;2.23;;;21.90;65.20;;;;;;4972464;28;20437;-63
2022/06/22 06:36:17;;;;;;;3.10;1.90;;;21.90;65.10;;;;;;4959066;28;20433;-63
2022/06/22 06:38:59;;;;;;;3.90;1.93;;;21.90;65.10;;;;;;4988534;28;21070;-63
2022/06/22 06:42:03;;;;;;;2.67;2.30;;;21.90;65.20;;;;;;4975148;28;20869;-63
2022/06/22 06:44:37;;;;;;;3.20;2.17;;;21.90;65.30;;;;;;4956417;28;20442;-67
2022/06/22 06:47:24;;;;;;;3.67;2.23;;;21.90;65.00;;;;;;4945647;28;20481;-66
2022/06/22 06:50:01;;;;;;;1.67;1.57;;;21.90;64.80;;;;;;4973930;28;20477;-65
2022/06/22 06:52:31;;;;;;;2.37;1.80;;;21.90;64.80;;;;;;4947573;28;20467;-63
2022/06/22 06:55:27;;;;;;;2.20;1.90;;;21.90;64.80;;;;;;4973243;28;20461;-63
2022/06/22 06:58:00;;;;;;;3.20;1.90;;;21.90;64.70;;;;;;4926307;28;20434;-63
2022/06/22 07:00:29;;;;;;;3.13;2.13;;;21.90;64.80;;;;;;4992906;28;20459;-63
2022/06/22 07:02:58;;;;;;;3.27;2.07;;;21.90;64.70;;;;;;4992499;28;20444;-64
2022/06/22 07:05:29;;;;;;;2.53;1.97;;;21.90;64.70;;;;;;4975326;28;20507;-63
2022/06/22 07:08:01;;;;;;;3.10;2.00;;;21.90;64.70;;;;;;4976727;28;20915;-63
2022/06/22 07:10:52;;;;;;;4.70;1.80;;;22.00;64.70;;;;;;4956291;28;20405;-64
2022/06/22 07:13:49;;;;;;;2.33;2.13;;;22.00;64.80;;;;;;4973298;28;20438;-63
2022/06/22 07:16:20;;;;;;;4.47;2.40;;;22.00;64.80;;;;;;4972589;28;20827;-63
2022/06/22 07:19:00;;;;;;;2.67;1.90;;;22.00;64.90;;;;;;4955926;28;20883;-63
2022/06/22 07:21:44;;;;;;;2.13;1.90;;;22.00;64.90;;;;;;4973039;28;20449;-64
2022/06/22 07:24:36;;;;;;;2.53;1.90;;;22.00;65.10;;;;;;4965254;28;20452;-63
2022/06/22 07:27:19;;;;;;;2.57;2.27;;;22.00;65.30;;;;;;4992882;28;20818;-64
2022/06/22 07:30:03;;;;;;;2.17;1.97;;;22.00;65.10;;;;;;4958815;28;20444;-64
2022/06/22 07:32:34;;;;;;;3.00;2.00;;;22.00;65.10;;;;;;4974877;28;20510;-64
2022/06/22 07:35:11;;;;;;;2.37;1.93;;;22.00;65.20;;;;;;4974764;28;20489;-64
2022/06/22 07:37:58;;;;;;;3.57;2.13;;;22.00;65.30;;;;;;4992268;28;20412;-64
2022/06/22 07:40:27;;;;;;;2.47;1.97;;;22.10;65.40;;;;;;4992367;28;20444;-63
2022/06/22 07:42:57;;;;;;;2.60;1.87;;;22.10;65.50;;;;;;4956027;28;20445;-64
2022/06/22 07:45:25;;;;;;;2.20;1.70;;;22.10;65.60;;;;;;4955559;28;20429;-63
2022/06/22 07:48:19;;;;;;;3.07;2.03;;;22.10;65.60;;;;;;4972308;28;20445;-64
2022/06/22 07:50:52;;;;;;;3.33;2.20;;;22.10;65.70;;;;;;4973010;28;20433;-63
2022/06/22 07:53:47;;;;;;;4.00;1.87;;;22.10;65.60;;;;;;4972512;28;20640;-64
2022/06/22 07:56:28;;;;;;;3.40;2.10;;;22.20;65.80;;;;;;4955253;28;20418;-63
2022/06/22 07:59:01;;;;;;;4.17;2.23;;;22.20;66.00;;;;;;4972474;28;20815;-64
2022/06/22 08:01:44;;;;;;;3.20;2.00;;;22.20;66.00;;;;;;4939296;28;20446;-64
2022/06/22 08:04:19;;;;;;;2.77;2.37;;;22.20;66.10;;;;;;4972565;28;20410;-63
2022/06/22 08:06:55;;;;;;;4.33;2.40;;;22.30;66.20;;;;;;4973840;28;20406;-63
2022/06/22 08:09:39;;;;;;;7.27;2.30;;;22.30;66.10;;;;;;4976263;28;20433;-64
2022/06/22 08:12:28;;;;;;;2.27;1.80;;;22.30;66.10;;;;;;4957780;28;20453;-64
2022/06/22 08:14:56;;;;;;;2.30;2.00;;;22.30;66.10;;;;;;4975931;28;20438;-64
2022/06/22 08:18:01;;;;;;;3.00;2.03;;;22.40;66.20;;;;;;4976112;28;20872;-64
2022/06/22 08:20:31;;;;;;;2.63;2.20;;;22.40;66.20;;;;;;4915335;29;20447;-64
2022/06/22 08:23:04;;;;;;;2.80;2.03;;;22.40;66.20;;;;;;4969593;28;20450;-64
2022/06/22 08:25:34;;;;;;;2.73;2.37;;;22.40;66.20;;;;;;4974694;28;20441;-64
2022/06/22 08:28:03;;;;;;;4.70;2.67;;;22.50;66.20;;;;;;4975718;28;20460;-63
2022/06/22 08:30:31;;;;;;;2.80;2.30;;;22.50;66.10;;;;;;4976013;28;20903;-64
2022/06/22 08:33:08;;;;;;;2.60;2.37;;;22.50;66.10;;;;;;4975332;28;20528;-64
2022/06/22 08:35:39;;;;;;;3.43;2.50;;;22.50;66.10;;;;;;4958201;28;20907;-64
2022/06/22 08:38:10;;;;;;;3.87;2.00;;;22.60;66.20;;;;;;4957925;28;20863;-64
2022/06/22 08:41:26;;;;;;;3.10;2.73;;;22.60;66.20;;;;;;4958766;28;20440;-64
2022/06/22 08:44:00;;;;;;;3.80;2.40;;;22.60;66.00;;;;;;4896668;29;20445;-63
2022/06/22 08:46:40;;;;;;;2.50;2.20;;;22.70;66.10;;;;;;4897075;29;20417;-64
2022/06/22 08:49:33;;;;;;;2.67;2.40;;;22.70;66.10;;;;;;4952111;28;20967;-64
2022/06/22 08:52:11;;;;;;;3.50;2.67;;;22.80;66.10;;;;;;4957942;28;20449;-64
2022/06/22 08:54:51;;;;;;;3.07;2.63;;;22.80;66.00;;;;;;4942712;28;21149;-64
2022/06/22 08:57:42;;;;;;;4.73;2.57;;;22.80;65.90;;;;;;4958246;28;20403;-64
2022/06/22 09:00:32;;;;;;;6.20;2.40;;;22.90;66.00;;;;;;4958352;28;20449;-64
2022/06/22 09:03:26;;;;;;;3.27;2.33;;;22.90;66.00;;;;;;4975030;28;20438;-64
2022/06/22 09:06:11;;;;;;;3.43;2.27;;;22.90;66.00;;;;;;4957726;28;21121;-64
2022/06/22 09:08:54;;;;;;;2.47;2.27;;;23.00;65.90;;;;;;4974925;28;20454;-64
2022/06/22 09:11:29;;;;;;;3.00;2.20;;;23.00;65.90;;;;;;4957613;28;20445;-64
2022/06/22 09:14:19;;;;;;;4.13;2.53;;;23.00;65.90;;;;;;4958119;28;20742;-63
2022/06/22 09:17:07;;;;;;;2.60;2.20;;;23.10;65.80;;;;;;4957753;28;20907;-64
2022/06/22 09:19:50;;;;;;;2.30;2.10;;;23.10;66.70;;;;;;4942094;28;20801;-64
2022/06/22 09:22:41;;;;;;;5.07;2.20;;;23.10;65.80;;;;;;4990977;28;21024;-64
2022/06/22 09:25:24;;;;;;;6.00;2.30;;;23.20;65.90;;;;;;4994525;28;20898;-63
2022/06/22 09:27:53;;;;;;;3.70;2.50;;;23.20;65.80;;;;;;4994358;28;20949;-63
2022/06/22 09:30:22;;;;;;;5.67;2.43;;;23.30;65.70;;;;;;4994283;28;20405;-64
2022/06/22 09:33:09;;;;;;;2.00;1.90;;;23.30;65.60;;;;;;4976567;28;20434;-64
2022/06/22 09:35:54;;;;;;;2.90;2.10;;;23.40;65.50;;;;;;4960429;28;20409;-63
2022/06/22 09:38:33;;;;;;;3.57;2.37;;;23.40;65.30;;;;;;4957389;28;20433;-64
2022/06/22 09:41:21;;;;;;;3.40;2.30;;;23.40;65.30;;;;;;4957182;28;20875;-64
2022/06/22 09:44:14;;;;;;;3.60;2.00;;;23.50;65.40;;;;;;4984809;28;20801;-64
2022/06/22 09:47:06;;;;;;;2.30;2.10;;;23.50;65.20;;;;;;4993838;28;20436;-64
2022/06/22 09:49:40;;;;;;;2.73;2.30;;;23.60;65.30;;;;;;4989155;28;20453;-64
2022/06/22 09:53:00;;;;;;;3.70;2.33;;;23.60;65.30;;;;;;4993601;28;20512;-64
2022/06/22 09:59:07;;;;;;;3.70;2.00;;;23.70;65.10;;;;;;4934334;28;20437;-64
2022/06/22 10:01:51;;;;;;;4.00;2.47;;;23.70;65.00;;;;;;4993492;28;20425;-63
2022/06/22 10:04:21;;;;;;;2.47;2.10;;;23.80;65.10;;;;;;4976425;28;20385;-64
2022/06/22 10:07:16;;;;;;;2.60;2.13;;;23.90;65.00;;;;;;4986128;28;20445;-64
2022/06/22 10:09:46;;;;;;;3.20;2.50;;;23.90;65.00;;;;;;4956399;28;20505;-64
2022/06/22 10:12:17;;;;;;;3.13;2.10;;;23.90;64.90;;;;;;4957022;28;20434;-64
2022/06/22 10:15:11;;;;;;;4.77;1.73;;;23.90;64.70;;;;;;4974278;28;20485;-64
2022/06/22 10:17:46;;;;;;;3.00;2.27;;;24.10;64.80;;;;;;4973769;28;20406;-64
2022/06/22 10:20:15;;;;;;;2.33;2.13;;;24.10;64.80;;;;;;4956778;28;20468;-64
2022/06/22 10:23:08;;;;;;;2.40;2.13;;;24.10;64.60;;;;;;4956234;28;20512;-64
2022/06/22 10:25:42;;;;;;;2.63;2.40;;;24.20;64.60;;;;;;4973813;28;20405;-64
2022/06/22 10:28:34;;;;;;;3.30;2.57;;;24.30;64.60;;;;;;4940372;28;20461;-63
2022/06/22 10:31:22;;;;;;;3.83;2.10;;;24.30;64.40;;;;;;4955108;28;21002;-63
2022/06/22 10:34:00;;;;;;;2.90;2.47;;;24.40;64.30;;;;;;4973322;28;20409;-64
2022/06/22 10:36:55;;;;;;;4.43;2.30;;;24.40;64.10;;;;;;4973150;28;20441;-63
2022/06/22 10:39:37;;;;;;;2.30;2.10;;;24.40;64.00;;;;;;4973578;28;20573;-63
2022/06/22 10:45:21;;;;;;;3.17;2.40;;;24.60;64.00;;;;;;4956056;28;20445;-64
2022/06/22 10:48:02;;;;;;;6.07;2.10;;;24.60;63.60;;;;;;4973360;28;20513;-63
2022/06/22 10:50:47;;;;;;;3.33;2.77;;;24.70;63.40;;;;;;4940353;28;20746;-63
2022/06/22 10:53:43;;;;;;;2.80;2.00;;;24.70;63.30;;;;;;4972898;28;20438;-64
2022/06/22 10:56:35;;;;;;;2.80;2.60;;;24.80;63.20;;;;;;4973191;28;20426;-64
2022/06/22 10:59:22;;;;;;;3.07;2.30;;;24.80;62.90;;;;;;4973221;28;20855;-64
2022/06/22 11:02:26;;;;;;;2.67;2.20;;;24.90;62.90;;;;;;4955686;28;20496;-64
2022/06/22 11:05:37;;;;;;;2.80;2.20;;;24.90;62.80;;;;;;4973270;28;20967;-64
2022/06/22 11:08:15;;;;;;;2.53;2.20;;;25.00;62.60;;;;;;4968799;28;20564;-64
2022/06/22 11:10:47;;;;;;;3.53;1.97;;;25.00;62.50;;;;;;4973235;28;20513;-64
2022/06/22 11:13:53;;;;;;;2.90;2.30;;;25.10;62.40;;;;;;4972992;28;20637;-63
2022/06/22 11:16:37;;;;;;;2.60;2.40;;;25.10;62.30;;;;;;4973057;28;20459;-63
2022/06/22 11:19:37;;;;;;;5.07;2.30;;;25.20;62.20;;;;;;4973210;28;20423;-64
2022/06/22 11:22:26;;;;;;;3.57;2.17;;;25.20;62.00;;;;;;4972884;28;20840;-63
2022/06/22 11:24:58;;;;;;;5.13;2.43;;;25.30;62.00;;;;;;4973147;28;20458;-64
2022/06/22 11:33:24;;;;;;;3.23;2.33;;;25.40;61.60;;;;;;4954410;28;20434;-64
2022/06/22 11:36:31;;;;;;;2.23;2.03;;;25.50;61.50;;;;;;4985709;28;20408;-63
2022/06/22 11:39:28;;;;;;;3.97;2.37;;;25.50;61.30;;;;;;4955450;28;20907;-63
2022/06/22 11:42:00;;;;;;;4.60;2.20;;;25.60;61.10;;;;;;4994044;28;20436;-63
2022/06/22 11:45:49;;;;;;;3.80;2.27;;;25.60;60.90;;;;;;4962879;28;20930;-63
2022/06/22 11:47:48;;;;;;;2.43;2.23;;;25.70;60.80;;;;;;4995831;28;20468;-63
2022/06/22 11:50:33;;;;;;;2.37;2.17;;;25.70;60.70;;;;;;4979254;28;20470;-63
2022/06/22 11:53:27;;;;;;;4.43;2.83;;;25.80;60.70;;;;;;4996403;28;20962;-63
2022/06/22 11:56:03;;;;;;;5.63;2.43;;;25.80;60.60;;;;;;4981146;28;20436;-63
2022/06/22 11:58:51;;;;;;;2.47;2.27;;;25.90;60.70;;;;;;4978891;28;20403;-63
2022/06/22 12:01:41;;;;;;;2.40;2.10;;;25.90;60.60;;;;;;4978904;28;20473;-63
2022/06/22 12:04:25;;;;;;;2.40;2.03;;;25.90;60.50;;;;;;4996407;28;20769;-63
2022/06/22 12:07:35;;;;;;;4.07;2.40;;;26.00;60.50;;;;;;4959337;28;20437;-63
2022/06/22 12:10:25;;;;;;;2.93;2.10;;;26.00;60.30;;;;;;4882557;29;20778;-63
2022/06/22 12:13:12;;;;;;;4.20;2.20;;;26.10;60.30;;;;;;4958505;28;20545;-63
2022/06/22 12:16:03;;;;;;;3.30;2.50;;;26.10;60.20;;;;;;4959432;28;20463;-63
2022/06/22 12:18:40;;;;;;;3.37;2.37;;;26.20;60.00;;;;;;4943375;28;20451;-64
2022/06/22 12:21:36;;;;;;;2.20;2.00;;;26.20;59.90;;;;;;4959105;28;20571;-63
2022/06/22 12:24:28;;;;;;;3.20;2.43;;;26.20;59.80;;;;;;4963007;28;20472;-63
2022/06/22 12:27:19;;;;;;;4.23;2.47;;;26.30;59.80;;;;;;4995662;28;20409;-63
2022/06/22 12:30:00;;;;;;;2.80;2.33;;;26.30;59.70;;;;;;4995689;28;20397;-63
2022/06/22 12:33:08;;;;;;;2.30;2.10;;;26.40;59.70;;;;;;4995908;28;20441;-62
2022/06/22 12:35:46;;;;;;;2.20;1.97;;;26.40;59.60;;;;;;4995554;28;20753;-63
2022/06/22 12:38:34;;;;;;;3.37;2.30;;;26.40;59.50;;;;;;4979171;28;20532;-63
2022/06/22 12:41:25;;;;;;;2.60;2.30;;;26.50;59.40;;;;;;4958741;28;20405;-63
2022/06/22 12:44:24;;;;;;;3.43;2.57;;;26.50;59.30;;;;;;4976024;28;20446;-63
2022/06/22 12:47:17;;;;;;;3.13;2.87;;;26.60;59.20;;;;;;4975938;28;20412;-63
2022/06/22 12:49:57;;;;;;;5.80;2.37;;;26.60;59.10;;;;;;4975805;28;20413;-63
2022/06/22 12:52:30;;;;;;;2.80;2.10;;;26.60;59.10;;;;;;4954991;28;20441;-63
2022/06/22 12:55:09;;;;;;;5.20;2.17;;;26.70;59.00;;;;;;4995333;28;20400;-63
2022/06/22 12:57:49;;;;;;;4.47;2.40;;;26.70;58.90;;;;;;4962170;28;20455;-63
2022/06/22 13:00:20;;;;;;;4.33;2.10;;;26.70;58.90;;;;;;4977815;28;20897;-62
2022/06/22 13:02:48;;;;;;;4.73;2.90;;;26.80;58.90;;;;;;4995295;28;20441;-63
2022/06/22 13:05:24;;;;;;;2.27;2.07;;;26.90;58.90;;;;;;4945728;28;20839;-63
2022/06/22 13:07:57;;;;;;;3.40;2.73;;;26.90;58.80;;;;;;4995153;28;20499;-63
2022/06/22 13:10:29;;;;;;;3.70;2.60;;;27.00;58.80;;;;;;4994997;28;20806;-63
2022/06/22 13:13:06;;;;;;;2.90;2.20;;;27.00;58.60;;;;;;4994304;28;20521;-63
2022/06/22 13:15:50;;;;;;;3.33;2.00;;;27.00;58.50;;;;;;4977702;28;20488;-63
2022/06/22 13:18:42;;;;;;;2.30;2.00;;;27.10;58.40;;;;;;4995102;28;20456;-62
2022/06/22 13:21:28;;;;;;;3.70;2.10;;;27.10;58.20;;;;;;4994918;28;20413;-63
2022/06/22 13:24:18;;;;;;;2.50;2.30;;;27.20;58.20;;;;;;4994789;28;20468;-62
2022/06/22 13:27:01;;;;;;;3.00;2.27;;;27.20;58.20;;;;;;4977585;28;20402;-63
2022/06/22 13:29:36;;;;;;;3.40;2.03;;;27.20;58.10;;;;;;4977244;28;20467;-63
2022/06/22 13:32:10;;;;;;;2.60;2.20;;;27.30;58.00;;;;;;4994523;28;20424;-63
2022/06/22 13:34:51;;;;;;;2.30;2.10;;;27.30;57.90;;;;;;4961495;28;20397;-63
2022/06/22 13:37:42;;;;;;;2.93;2.63;;;27.40;57.50;;;;;;4965947;28;20508;-63
2022/06/22 13:40:26;;;;;;;3.40;2.30;;;27.40;57.60;;;;;;4974216;28;20409;-63
2022/06/22 13:43:11;;;;;;;1.93;1.73;;;27.40;57.60;;;;;;4978210;28;20446;-63
2022/06/22 13:45:41;;;;;;;2.20;2.00;;;27.50;57.70;;;;;;4987482;28;20414;-63
2022/06/22 13:48:25;;;;;;;2.53;2.20;;;27.50;57.60;;;;;;4964305;28;20458;-63
2022/06/22 13:52:04;;;;;;;2.30;2.10;;;27.50;57.60;;;;;;4993377;28;20424;-63
2022/06/22 13:54:42;;;;;;;2.60;2.40;;;27.60;57.50;;;;;;4983996;28;20479;-63
2022/06/22 13:57:13;;;;;;;2.57;2.00;;;27.60;57.60;;;;;;4988097;28;20809;-63
2022/06/22 13:59:52;;;;;;;2.87;2.20;;;27.70;57.60;;;;;;4983369;28;20410;-62
2022/06/22 14:02:41;;;;;;;2.00;1.80;;;27.70;57.60;;;;;;4974178;28;20438;-65
2022/06/22 14:05:28;;;;;;;2.77;2.27;;;27.80;57.40;;;;;;4973166;28;20453;-65
2022/06/22 14:08:15;;;;;;;2.37;2.17;;;27.80;57.40;;;;;;4973241;28;20980;-65
2022/06/22 14:10:54;;;;;;;3.70;2.53;;;27.90;57.00;;;;;;4974394;28;20448;-65
2022/06/22 14:13:44;;;;;;;2.77;2.10;;;27.90;57.00;;;;;;4956897;28;20549;-65
2022/06/22 14:16:14;;;;;;;3.83;2.20;;;27.90;57.10;;;;;;4940955;28;20446;-64